TimeCST,TemperatureF,Dew PointF,Humidity,Sea Level PressureIn,VisibilityMPH,Wind Direction,Wind SpeedMPH,Gust SpeedMPH,PrecipitationIn,Events,Conditions,WindDirDegrees,DateUTC
12:15 AM,41.0,26.6,57,30.06,10.0,ENE,5.8,-,N/A,,Clear,60,2013-02-12 06:15:00
12:35 AM,41.0,26.6,57,30.05,10.0,ENE,6.9,-,N/A,,Scattered Clouds,70,2013-02-12 06:35:00
12:55 AM,39.2,28.4,65,30.05,10.0,ENE,6.9,-,N/A,,Scattered Clouds,60,2013-02-12 06:55:00
1:15 AM,41.0,28.4,61,30.05,10.0,East,8.1,-,N/A,,Clear,80,2013-02-12 07:15:00
1:35 AM,41.0,28.4,61,30.04,10.0,ENE,5.8,-,N/A,,Mostly Cloudy,70,2013-02-12 07:35:00
1:55 AM,41.0,28.4,61,30.04,10.0,ENE,6.9,-,N/A,,Overcast,70,2013-02-12 07:55:00
2:15 AM,41.0,28.4,61,30.04,10.0,ENE,5.8,-,N/A,,Mostly Cloudy,60,2013-02-12 08:15:00
2:35 AM,41.0,28.4,61,30.04,10.0,ENE,6.9,-,N/A,,Scattered Clouds,60,2013-02-12 08:35:00
3:15 AM,42.8,30.2,61,30.03,10.0,NE,8.1,-,N/A,,Light Drizzle,50,2013-02-12 09:15:00
3:35 AM,42.8,32.0,66,30.03,10.0,NE,6.9,-,N/A,Rain,Light Rain,50,2013-02-12 09:35:00
3:55 AM,42.8,32.0,66,30.01,10.0,NE,9.2,-,N/A,Rain,Light Rain,50,2013-02-12 09:55:00
4:15 AM,41.0,32.0,70,30.00,10.0,ENE,8.1,-,N/A,,Light Drizzle,60,2013-02-12 10:15:00
4:35 AM,41.0,32.0,70,30.00,10.0,ENE,8.1,-,N/A,,Light Drizzle,60,2013-02-12 10:35:00
4:55 AM,41.0,32.0,70,29.99,10.0,NE,9.2,-,N/A,Rain,Light Rain,50,2013-02-12 10:55:00
5:35 AM,37.4,32.0,81,29.99,4.0,NE,10.4,-,0.03,Rain,Rain,40,2013-02-12 11:35:00
5:55 AM,37.4,33.8,87,29.98,4.0,NE,12.7,-,0.05,Rain,Rain,50,2013-02-12 11:55:00
6:15 AM,37.4,33.8,87,29.97,4.0,NNE,13.8,-,0.03,Rain,Rain,30,2013-02-12 12:15:00
6:35 AM,37.4,33.8,87,29.99,4.0,NE,12.7,-,0.06,Rain,Rain,40,2013-02-12 12:35:00
6:55 AM,37.4,33.8,87,29.99,2.5,NE,12.7,-,0.12,Rain,Rain,50,2013-02-12 12:55:00
7:15 AM,37.4,33.8,87,29.97,7.0,NE,17.3,-,0.01,Rain,Rain,50,2013-02-12 13:15:00
7:35 AM,37.4,33.8,87,30.00,7.0,NNE,13.8,-,0.02,Rain,Rain,20,2013-02-12 13:35:00
7:55 AM,37.4,33.8,87,30.03,2.5,North,13.8,-,0.04,,Overcast,10,2013-02-12 13:55:00
8:15 AM,35.6,33.8,93,30.03,2.0,NNE,18.4,-,0.03,Snow,Light Snow,20,2013-02-12 14:15:00
8:35 AM,35.6,32.0,87,30.04,2.0,NNE,16.1,-,0.09,Snow,Light Snow,20,2013-02-12 14:35:00
8:55 AM,33.8,32.0,93,30.04,3.0,North,13.8,-,0.10,,Overcast,10,2013-02-12 14:55:00
9:15 AM,33.8,32.0,93,30.04,2.5,NNE,12.7,-,0.02,Snow,Light Snow,20,2013-02-12 15:15:00
9:35 AM,35.6,33.8,93,30.04,7.0,NE,10.4,-,0.04,Rain,Light Rain,40,2013-02-12 15:35:00
9:55 AM,35.6,33.8,93,30.04,7.0,NNE,12.7,-,0.05,Rain,Light Rain,30,2013-02-12 15:55:00
10:15 AM,35.6,33.8,93,30.04,5.0,NE,16.1,-,N/A,Rain,Light Rain,40,2013-02-12 16:15:00
10:35 AM,35.6,33.8,93,30.04,7.0,NE,13.8,19.6,N/A,Rain,Light Rain,40,2013-02-12 16:35:00
10:55 AM,35.6,33.8,93,30.02,7.0,NE,17.3,24.2,0.01,Rain,Rain,50,2013-02-12 16:55:00
11:15 AM,35.6,33.8,93,29.99,5.0,ENE,24.2,31.1,N/A,Rain,Light Rain,60,2013-02-12 17:15:00
11:35 AM,35.6,33.8,93,29.99,10.0,ENE,21.9,28.8,N/A,,Overcast,60,2013-02-12 17:35:00
11:55 AM,37.4,33.8,87,30.00,10.0,ENE,21.9,28.8,N/A,,Mostly Cloudy,60,2013-02-12 17:55:00
12:15 PM,35.6,33.8,93,30.01,10.0,ENE,15.0,-,N/A,,Overcast,60,2013-02-12 18:15:00
12:35 PM,35.6,33.8,93,30.01,10.0,NE,13.8,-,N/A,,Overcast,40,2013-02-12 18:35:00
12:55 PM,35.6,32.0,87,30.00,10.0,NE,13.8,20.7,N/A,,Overcast,40,2013-02-12 18:55:00
1:15 PM,35.6,32.0,87,29.99,5.0,NE,13.8,-,N/A,Rain,Light Rain,40,2013-02-12 19:15:00
1:35 PM,35.6,32.0,87,29.99,3.0,NNE,11.5,-,0.01,Snow,Light Snow,30,2013-02-12 19:35:00
1:55 PM,35.6,32.0,87,29.99,4.0,NNE,9.2,-,0.01,Snow,Light Snow,20,2013-02-12 19:55:00
2:15 PM,33.8,32.0,93,30.00,4.0,North,12.7,-,0.01,Snow,Light Snow,360,2013-02-12 20:15:00
2:35 PM,33.8,32.0,93,29.99,2.0,North,16.1,-,0.01,Snow,Light Snow,10,2013-02-12 20:35:00
2:55 PM,33.8,32.0,93,30.00,2.0,North,15.0,-,0.01,Snow,Light Snow,10,2013-02-12 20:55:00
3:15 PM,33.8,32.0,93,30.00,2.5,North,15.0,-,N/A,Snow,Light Snow,10,2013-02-12 21:15:00
3:35 PM,33.8,32.0,93,30.00,1.2,North,17.3,-,0.01,Snow,Light Snow,10,2013-02-12 21:35:00
3:55 PM,35.6,33.8,93,30.00,5.0,NNE,16.1,-,0.02,Rain,Light Rain,20,2013-02-12 21:55:00
4:15 PM,35.6,33.8,93,30.01,7.0,NNE,18.4,-,N/A,Rain,Light Rain,20,2013-02-12 22:15:00
4:35 PM,35.6,33.8,93,30.02,7.0,NNE,15.0,-,N/A,Rain,Light Rain,20,2013-02-12 22:35:00
5:15 PM,35.6,33.8,93,30.03,10.0,North,19.6,-,N/A,,Drizzle,350,2013-02-12 23:15:00
5:35 PM,35.6,33.8,93,30.03,7.0,North,18.4,23.0,N/A,,Drizzle,350,2013-02-12 23:35:00
5:55 PM,35.6,33.8,93,30.03,10.0,North,16.1,21.9,N/A,Rain,Light Rain,350,2013-02-12 23:55:00
6:15 PM,35.6,33.8,93,30.04,10.0,North,16.1,-,N/A,,Overcast,350,2013-02-13 00:15:00
6:35 PM,35.6,32.0,87,30.05,10.0,North,13.8,-,N/A,,Overcast,350,2013-02-13 00:35:00
6:55 PM,33.8,32.0,93,30.05,10.0,North,12.7,-,N/A,,Mostly Cloudy,350,2013-02-13 00:55:00
7:15 PM,33.8,32.0,93,30.06,10.0,North,10.4,-,N/A,,Scattered Clouds,350,2013-02-13 01:15:00
7:35 PM,35.6,32.0,87,30.07,10.0,North,10.4,-,N/A,,Mostly Cloudy,350,2013-02-13 01:35:00
8:15 PM,33.8,32.0,93,30.08,10.0,NNW,9.2,-,N/A,,Clear,340,2013-02-13 02:15:00
8:35 PM,33.8,32.0,93,30.08,10.0,North,11.5,-,N/A,,Clear,350,2013-02-13 02:35:00
8:55 PM,33.8,32.0,93,30.08,10.0,North,9.2,-,N/A,,Clear,350,2013-02-13 02:55:00
9:15 PM,33.8,32.0,93,30.09,10.0,NNW,11.5,-,N/A,,Clear,340,2013-02-13 03:15:00
9:35 PM,33.8,32.0,93,30.11,10.0,NNW,3.5,-,N/A,,Clear,340,2013-02-13 03:35:00
9:55 PM,32.0,32.0,100,30.11,10.0,NNW,5.8,-,N/A,,Scattered Clouds,330,2013-02-13 03:55:00
10:15 PM,32.0,32.0,100,30.11,7.0,Calm,Calm,-,N/A,,Mostly Cloudy,0,2013-02-13 04:15:00
10:35 PM,33.8,32.0,93,30.11,7.0,Calm,Calm,-,N/A,,Overcast,0,2013-02-13 04:35:00
10:55 PM,33.8,32.0,93,30.11,7.0,Calm,Calm,-,N/A,,Overcast,0,2013-02-13 04:55:00
11:15 PM,33.8,32.0,93,30.11,7.0,West,3.5,-,N/A,,Mostly Cloudy,280,2013-02-13 05:15:00
11:35 PM,33.8,32.0,93,30.12,7.0,West,5.8,-,N/A,,Scattered Clouds,280,2013-02-13 05:35:00
11:55 PM,32.0,32.0,100,30.12,7.0,West,4.6,-,N/A,,Clear,260,2013-02-13 05:55:00